Time;durP1;ratioP1;P1;durP2;ratioP2;P2;SDS_P1;SDS_P2;PMS_P1;PMS_P2;Temp;Humidity;BMP_temperature;BMP_pressure;BME280_temperature;BME280_humidity;BME280_pressure;Samples;Min_cycle;Max_cycle;Signal;HPM_P1;HPM_P2
2021/06/06 00:00:43;;;;;;;6.40;5.90;;;;;;;15.49;100.00;98346.88;5100961;28;20659;-69
2021/06/06 00:03:14;;;;;;;8.73;6.70;;;;;;;15.54;100.00;98353.53;5102818;28;20685;-72
2021/06/06 00:05:46;;;;;;;6.63;6.07;;;;;;;15.63;100.00;98349.72;5099552;28;20248;-69
2021/06/06 00:08:13;;;;;;;5.97;5.57;;;;;;;15.75;100.00;98347.38;5098626;27;20700;-69
2021/06/06 00:10:44;;;;;;;6.53;6.10;;;;;;;15.62;100.00;98346.19;5098906;28;20487;-70
2021/06/06 00:13:12;;;;;;;7.00;6.47;;;;;;;15.57;100.00;98342.47;5100306;28;20225;-70
2021/06/06 00:15:40;;;;;;;5.50;5.07;;;;;;;15.61;100.00;98341.88;5092814;28;20629;-69
2021/06/06 00:18:08;;;;;;;5.90;5.40;;;;;;;15.67;100.00;98342.13;5102406;28;20206;-70
2021/06/06 00:20:37;;;;;;;7.83;6.20;;;;;;;15.58;100.00;98334.25;5099140;28;20613;-69
2021/06/06 00:23:06;;;;;;;5.77;5.37;;;;;;;15.57;100.00;98342.47;5098728;27;20209;-70
2021/06/06 00:25:34;;;;;;;7.03;6.40;;;;;;;15.53;100.00;98343.81;5101533;27;20221;-70
2021/06/06 00:28:03;;;;;;;5.83;5.53;;;;;;;15.47;100.00;98337.41;5098341;28;20206;-70
2021/06/06 00:30:30;;;;;;;6.07;5.67;;;;;;;15.50;100.00;98345.03;5100004;28;20201;-71
2021/06/06 00:32:58;;;;;;;7.30;6.80;;;;;;;15.48;100.00;98342.53;5098805;28;20206;-71
2021/06/06 00:35:25;;;;;;;7.50;7.00;;;;;;;15.50;100.00;98347.72;5101403;28;20237;-71
2021/06/06 00:37:53;;;;;;;7.00;6.30;;;;;;;15.56;100.00;98351.50;5101111;28;20653;-70
2021/06/06 00:40:23;;;;;;;7.47;6.57;;;;;;;15.54;100.00;98348.19;5097385;28;20621;-69
2021/06/06 00:42:51;;;;;;;7.43;6.87;;;;;;;15.53;100.00;98344.66;5097945;28;20241;-69
2021/06/06 00:45:24;;;;;;;7.83;6.90;;;;;;;15.58;100.00;98341.44;5095275;28;20252;-70
2021/06/06 00:47:51;;;;;;;7.60;7.10;;;;;;;15.53;100.00;98347.34;5098927;28;20205;-70
2021/06/06 00:50:23;;;;;;;7.47;6.77;;;;;;;15.55;100.00;98342.63;5098399;28;20205;-70
2021/06/06 00:52:51;;;;;;;7.37;6.90;;;;;;;15.57;100.00;98342.47;5100521;28;20661;-72
2021/06/06 00:55:19;;;;;;;6.67;6.17;;;;;;;15.68;100.00;98347.31;5093989;28;20535;-70
2021/06/06 00:57:48;;;;;;;6.63;6.23;;;;;;;15.75;100.00;98342.03;5098418;28;20437;-70
2021/06/06 01:00:23;;;;;;;6.47;5.87;;;;;;;15.79;100.00;98335.31;5091759;28;20232;-70
2021/06/06 01:02:51;;;;;;;7.20;6.60;;;;;;;15.61;100.00;98339.19;5097465;28;20208;-70
2021/06/06 01:05:29;;;;;;;7.43;6.83;;;;;;;15.71;100.00;98338.06;5096879;28;20310;-72
2021/06/06 01:07:57;;;;;;;6.77;6.27;;;;;;;15.79;100.00;98346.00;5098207;28;20329;-69
2021/06/06 01:10:25;;;;;;;6.87;6.40;;;;;;;15.64;100.00;98343.34;5098251;28;20217;-71
2021/06/06 01:12:56;;;;;;;7.20;6.60;;;;;;;15.72;100.00;98340.56;5097652;28;20205;-70
2021/06/06 01:15:27;;;;;;;6.30;5.90;;;;;;;15.64;100.00;98338.00;5097467;28;20243;-71
2021/06/06 01:18:01;;;;;;;6.90;6.50;;;;;;;15.73;100.00;98336.06;5099544;28;20236;-71
2021/06/06 01:20:38;;;;;;;7.57;6.87;;;;;;;15.66;100.00;98337.81;5098782;28;20221;-70
2021/06/06 01:23:15;;;;;;;7.37;6.97;;;;;;;15.71;100.00;98338.06;5096140;28;20202;-69
2021/06/06 01:25:46;;;;;;;7.30;6.70;;;;;;;15.67;100.00;98332.28;5098776;28;20213;-70
2021/06/06 01:28:17;;;;;;;7.00;6.60;;;;;;;15.61;100.00;98328.53;5097236;28;20201;-69
2021/06/06 01:30:47;;;;;;;7.20;6.70;;;;;;;15.72;100.00;98326.38;5100470;28;20573;-69
2021/06/06 01:33:19;;;;;;;7.13;6.63;;;;;;;15.69;100.00;98332.09;5098641;28;20202;-70
2021/06/06 01:35:48;;;;;;;7.73;7.23;;;;;;;15.74;100.00;98327.84;5098976;28;20226;-70
2021/06/06 01:38:18;;;;;;;7.67;7.07;;;;;;;15.79;100.00;98327.28;5093958;28;20205;-69
2021/06/06 01:40:49;;;;;;;7.47;6.87;;;;;;;15.68;100.00;98327.75;5097787;28;20222;-72
2021/06/06 01:43:37;;;;;;;7.90;7.23;;;;;;;15.65;100.00;98328.97;5096681;28;20209;-71
2021/06/06 01:46:24;;;;;;;7.87;7.37;;;;;;;15.62;100.00;98327.50;5095557;28;20409;-70
2021/06/06 01:49:10;;;;;;;7.80;7.10;;;;;;;15.65;100.00;98320.13;5095328;28;20208;-70
2021/06/06 01:51:58;;;;;;;7.23;6.73;;;;;;;15.67;100.00;98323.44;5093091;28;20245;-69
2021/06/06 01:54:28;;;;;;;7.63;7.10;;;;;;;15.68;100.00;98319.75;5096911;28;20225;-69
2021/06/06 01:56:57;;;;;;;7.87;7.17;;;;;;;15.83;100.00;98317.88;5094386;28;20209;-72
2021/06/06 01:59:26;;;;;;;8.37;7.57;;;;;;;15.94;100.00;98313.91;5098887;28;20201;-69
2021/06/06 02:01:54;;;;;;;8.23;7.53;;;;;;;15.88;100.00;98314.63;5095195;28;20646;-70
2021/06/06 02:04:22;;;;;;;8.23;7.73;;;;;;;15.77;100.00;98318.63;5094488;28;20375;-71
2021/06/06 02:06:53;;;;;;;8.17;7.07;;;;;;;15.85;100.00;98315.00;5098722;28;20205;-70
2021/06/06 02:09:24;;;;;;;7.57;7.07;;;;;;;15.84;100.00;98311.50;5096219;28;20294;-69
2021/06/06 02:11:54;;;;;;;7.47;6.97;;;;;;;15.70;100.00;98313.22;5098709;28;20205;-70
2021/06/06 02:14:24;;;;;;;8.50;7.87;;;;;;;15.73;100.00;98318.16;5100733;28;20266;-71
2021/06/06 02:16:55;;;;;;;9.47;8.57;;;;;;;15.68;100.00;98317.91;5100833;28;20569;-70
2021/06/06 02:19:26;;;;;;;9.03;8.23;;;;;;;15.65;100.00;98318.28;5095533;28;20206;-70
2021/06/06 02:21:55;;;;;;;9.00;8.30;;;;;;;15.75;100.00;98308.13;5100605;28;20256;-72
2021/06/06 02:24:41;;;;;;;8.60;7.90;;;;;;;15.76;100.00;98308.97;5100364;28;20769;-71
2021/06/06 02:27:32;;;;;;;8.73;8.03;;;;;;;15.70;100.00;98312.38;5102625;28;20204;-71
2021/06/06 02:30:09;;;;;;;8.47;7.77;;;;;;;15.76;100.00;98306.28;5102635;28;20201;-70
2021/06/06 02:32:57;;;;;;;8.80;8.20;;;;;;;15.76;100.00;98306.28;5105735;27;20273;-70
2021/06/06 02:35:44;;;;;;;8.77;8.07;;;;;;;15.76;100.00;98312.44;5102885;28;20228;-73
2021/06/06 02:38:15;;;;;;;9.57;8.73;;;;;;;15.88;100.00;98309.28;5103458;28;20428;-71
2021/06/06 02:41:03;;;;;;;10.63;9.70;;;;;;;15.81;100.00;98303.88;5102379;27;20281;-72
2021/06/06 02:43:52;;;;;;;9.13;8.47;;;;;;;15.84;100.00;98305.31;5099336;28;20208;-70
2021/06/06 02:46:40;;;;;;;9.90;9.20;;;;;;;15.84;100.00;98300.81;5096902;28;20241;-70
2021/06/06 02:49:11;;;;;;;8.33;7.77;;;;;;;15.86;100.00;98306.78;5101115;28;20202;-71
2021/06/06 02:51:41;;;;;;;9.73;8.93;;;;;;;15.81;100.00;98301.19;5096542;28;20197;-70
2021/06/06 02:54:12;;;;;;;10.30;9.50;;;;;;;15.86;100.00;98301.44;5101359;28;20597;-72
2021/06/06 02:56:47;;;;;;;9.90;9.03;;;;;;;15.80;100.00;98296.88;5102589;28;20659;-70
2021/06/06 02:59:17;;;;;;;9.43;8.63;;;;;;;15.82;100.00;98299.34;5102136;27;20205;-67
2021/06/06 03:01:50;;;;;;;10.60;9.70;;;;;;;15.81;100.00;98298.53;5101108;28;20442;-70
2021/06/06 03:04:20;;;;;;;10.50;9.53;;;;;;;15.81;100.00;98292.34;5100462;28;20205;-70
2021/06/06 03:06:51;;;;;;;10.33;9.57;;;;;;;15.76;100.00;98292.94;5103519;28;20201;-71
2021/06/06 03:09:19;;;;;;;9.77;9.13;;;;;;;15.75;100.00;98297.44;5099516;28;20636;-72
2021/06/06 03:11:49;;;;;;;10.23;9.43;;;;;;;15.74;100.00;98295.78;5102194;28;20210;-71
2021/06/06 03:14:20;;;;;;;9.90;9.10;;;;;;;15.85;100.00;98301.63;5102631;28;20729;-72
2021/06/06 03:16:55;;;;;;;10.33;9.53;;;;;;;15.97;100.00;98307.31;5097985;28;20202;-70
2021/06/06 03:19:24;;;;;;;11.13;10.20;;;;;;;15.82;100.00;98296.66;5098225;28;20804;-70
2021/06/06 03:21:52;;;;;;;10.67;9.97;;;;;;;15.77;100.00;98297.25;5099713;28;20226;-71
2021/06/06 03:24:29;;;;;;;11.10;10.33;;;;;;;15.78;100.00;98294.38;5095782;28;20414;-71
2021/06/06 03:26:57;;;;;;;10.80;10.00;;;;;;;15.70;100.00;98294.50;5102275;28;20217;-70
2021/06/06 03:29:28;;;;;;;11.37;10.47;;;;;;;15.74;100.00;98297.63;5099453;27;20206;-70
2021/06/06 03:32:00;;;;;;;10.90;9.87;;;;;;;15.79;100.00;98295.22;5089620;28;20202;-72
2021/06/06 03:34:27;;;;;;;11.77;10.87;;;;;;;15.81;100.00;98293.19;5093585;28;20225;-69
2021/06/06 03:36:55;;;;;;;10.83;10.03;;;;;;;16.03;100.00;98295.88;5094283;28;20236;-68
2021/06/06 03:39:27;;;;;;;11.03;10.17;;;;;;;15.94;100.00;98295.19;5099403;28;20211;-65
2021/06/06 03:41:56;;;;;;;11.80;10.90;;;;;;;15.96;100.00;98306.53;5099535;28;20233;-67
2021/06/06 03:44:24;;;;;;;12.93;11.93;;;;;;;15.95;100.00;98298.69;5099305;27;20217;-67
2021/06/06 03:46:52;;;;;;;11.27;10.37;;;;;;;15.90;100.00;98299.25;5100467;28;20198;-67
2021/06/06 03:49:21;;;;;;;11.17;10.37;;;;;;;15.90;100.00;98301.91;5096032;28;20208;-70
2021/06/06 03:51:49;;;;;;;10.97;10.20;;;;;;;15.89;100.00;98301.09;5096793;28;20205;-70
2021/06/06 03:54:18;;;;;;;11.93;10.77;;;;;;;15.95;100.00;98301.34;5097617;27;20206;-69
2021/06/06 03:56:47;;;;;;;11.53;10.63;;;;;;;15.89;100.00;98303.78;5100995;28;20205;-69
2021/06/06 03:59:15;;;;;;;11.37;10.43;;;;;;;15.99;100.00;98303.47;5097508;28;20216;-67
2021/06/06 04:01:43;;;;;;;11.53;10.67;;;;;;;15.98;100.00;98309.81;5101722;28;20347;-69
2021/06/06 04:04:11;;;;;;;12.50;11.30;;;;;;;15.95;100.00;98298.69;5100539;28;20259;-69
2021/06/06 04:06:40;;;;;;;11.97;10.97;;;;;;;15.92;100.00;98302.56;5097385;28;20213;-70
2021/06/06 04:09:08;;;;;;;12.73;11.73;;;;;;;15.96;100.00;98292.31;5096367;28;20210;-69
2021/06/06 04:11:37;;;;;;;12.63;11.73;;;;;;;15.97;100.00;98297.47;5096986;28;20208;-69
2021/06/06 04:14:06;;;;;;;12.00;11.10;;;;;;;16.12;100.00;98300.09;5094105;28;20209;-69
2021/06/06 04:16:34;;;;;;;12.73;11.73;;;;;;;16.07;100.00;98302.47;5102975;28;20574;-69
2021/06/06 04:19:02;;;;;;;14.03;12.93;;;;;;;16.08;100.00;98301.47;5098117;28;20335;-69
2021/06/06 04:21:32;;;;;;;12.23;11.37;;;;;;;16.06;100.00;98301.66;5094211;28;20226;-69
2021/06/06 04:24:01;;;;;;;14.77;13.67;;;;;;;16.10;100.00;98298.59;5095952;28;20555;-67
2021/06/06 04:26:28;;;;;;;13.83;12.63;;;;;;;16.21;100.00;98300.75;5093808;28;20214;-69
2021/06/06 04:28:56;;;;;;;14.10;12.90;;;;;;;16.23;100.00;98300.56;5093892;28;20232;-69
2021/06/06 04:31:25;;;;;;;14.07;12.87;;;;;;;16.18;100.00;98293.97;5097324;28;20197;-69
2021/06/06 04:33:53;;;;;;;13.67;12.57;;;;;;;16.20;100.00;98296.44;5095718;28;20199;-69
2021/06/06 04:36:21;;;;;;;14.53;13.43;;;;;;;16.22;100.00;98299.72;5095118;28;20240;-68
2021/06/06 04:38:48;;;;;;;13.23;12.10;;;;;;;16.24;100.00;98294.22;5102092;28;20476;-68
2021/06/06 04:41:17;;;;;;;14.43;13.03;;;;;;;16.29;100.00;98295.28;5101150;28;20209;-69
2021/06/06 04:43:45;;;;;;;15.30;13.93;;;;;;;16.36;100.00;98292.66;5091693;28;20609;-69
2021/06/06 04:46:14;;;;;;;15.17;13.93;;;;;;;16.39;100.00;98283.41;5095391;28;20228;-67
2021/06/06 04:48:44;;;;;;;15.53;14.20;;;;;;;16.35;100.00;98285.66;5098311;28;20285;-68
2021/06/06 04:51:14;;;;;;;14.57;13.43;;;;;;;16.38;100.00;98287.94;5101444;28;20209;-68
2021/06/06 04:53:42;;;;;;;15.47;14.20;;;;;;;16.30;100.00;98293.44;5098604;28;20193;-69
2021/06/06 04:56:11;;;;;;;14.93;13.73;;;;;;;16.31;100.00;98292.41;5097813;28;20256;-68
2021/06/06 04:58:40;;;;;;;14.90;13.67;;;;;;;16.28;100.00;98298.16;5095209;28;20208;-68
2021/06/06 05:01:07;;;;;;;15.13;13.93;;;;;;;16.28;100.00;98300.81;5100896;28;20202;-69
2021/06/06 05:03:35;;;;;;;15.50;14.13;;;;;;;16.35;100.00;98296.34;5098719;28;20250;-67
2021/06/06 05:06:02;;;;;;;14.60;13.40;;;;;;;16.39;100.00;98292.25;5097545;28;20226;-69
2021/06/06 05:08:30;;;;;;;14.17;12.97;;;;;;;16.41;100.00;98298.25;5095523;28;20213;-67
2021/06/06 05:10:58;;;;;;;14.47;13.27;;;;;;;16.28;100.00;98298.94;5098441;28;20201;-66
2021/06/06 05:13:26;;;;;;;14.67;13.47;;;;;;;16.34;100.00;98303.56;5098901;28;20330;-67
2021/06/06 05:15:55;;;;;;;13.60;12.50;;;;;;;16.36;100.00;98292.66;5096718;27;20364;-68
2021/06/06 05:18:24;;;;;;;15.27;13.97;;;;;;;16.35;100.00;98299.00;5091807;28;20249;-70
2021/06/06 05:20:54;;;;;;;15.63;14.33;;;;;;;16.32;100.00;98297.56;5096327;28;20424;-71
2021/06/06 05:23:23;;;;;;;14.50;13.10;;;;;;;16.31;100.00;98297.75;5095958;27;20515;-69
2021/06/06 05:25:51;;;;;;;15.77;14.50;;;;;;;16.42;100.00;98299.06;5095213;28;20627;-70
2021/06/06 05:28:22;;;;;;;14.63;13.53;;;;;;;16.27;100.00;98302.66;5099051;28;20607;-70
2021/06/06 05:30:50;;;;;;;14.17;12.97;;;;;;;16.37;100.00;98299.66;5096469;28;20206;-70
2021/06/06 05:33:19;;;;;;;13.97;12.83;;;;;;;16.42;100.00;98299.06;5100686;28;20205;-71
2021/06/06 05:35:47;;;;;;;14.27;13.17;;;;;;;16.32;100.00;98302.06;5096256;28;20245;-69
2021/06/06 05:38:16;;;;;;;15.90;14.53;;;;;;;16.31;100.00;98309.28;5096418;28;20197;-70
2021/06/06 05:40:44;;;;;;;14.47;13.37;;;;;;;16.55;100.00;98309.88;5096791;28;20248;-69
2021/06/06 05:43:12;;;;;;;16.27;14.97;;;;;;;16.43;100.00;98303.41;5092911;28;20260;-69
2021/06/06 05:45:40;;;;;;;14.57;13.47;;;;;;;16.33;100.00;98303.72;5096223;28;20222;-71
2021/06/06 05:48:08;;;;;;;15.60;14.17;;;;;;;16.32;100.00;98302.06;5091679;28;20614;-69
2021/06/06 05:50:39;;;;;;;14.93;13.73;;;;;;;16.41;100.00;98308.94;5098721;28;20626;-70
2021/06/06 05:53:07;;;;;;;16.57;15.00;;;;;;;16.45;100.00;98301.38;5100317;28;20212;-69
2021/06/06 05:55:34;;;;;;;14.83;13.57;;;;;;;16.45;100.00;98309.38;5095805;28;20228;-71
2021/06/06 05:58:02;;;;;;;14.17;12.90;;;;;;;16.55;100.00;98309.88;5096103;28;20208;-69
2021/06/06 06:00:33;;;;;;;14.40;13.23;;;;;;;16.57;100.00;98310.50;5096160;28;20210;-70
2021/06/06 06:03:01;;;;;;;13.83;12.73;;;;;;;16.37;100.00;98315.69;5094562;28;20253;-70
2021/06/06 06:05:29;;;;;;;14.97;13.77;;;;;;;16.40;100.00;98314.50;5094045;28;20229;-72
2021/06/06 06:07:58;;;;;;;15.90;14.57;;;;;;;16.49;100.00;98314.16;5090235;28;20208;-71
2021/06/06 06:10:29;;;;;;;14.40;13.17;;;;;;;16.59;100.00;98307.63;5094892;28;20243;-72
2021/06/06 06:12:57;;;;;;;15.17;14.03;;;;;;;16.48;100.00;98304.47;5096952;28;20209;-72
2021/06/06 06:15:24;;;;;;;14.80;13.57;;;;;;;16.61;100.00;98308.28;5093680;28;20222;-69
2021/06/06 06:17:52;;;;;;;14.93;13.53;;;;;;;16.74;100.00;98316.38;5094219;28;20205;-71
2021/06/06 06:20:20;;;;;;;14.47;13.40;;;;;;;16.76;100.00;98313.50;5097584;28;20224;-71
2021/06/06 06:22:48;;;;;;;14.07;12.93;;;;;;;16.89;100.00;98315.44;5095094;28;20236;-72
2021/06/06 06:25:18;;;;;;;14.50;13.40;;;;;;;16.95;100.00;98314.66;5098428;28;20222;-72
2021/06/06 06:27:46;;;;;;;14.20;13.10;;;;;;;17.12;100.00;98312.50;5091055;28;20583;-71
2021/06/06 06:30:16;;;;;;;13.83;12.80;;;;;;;17.22;100.00;98312.13;5093517;28;20730;-69
2021/06/06 06:32:44;;;;;;;14.57;13.37;;;;;;;17.26;100.00;98321.44;5095502;28;20201;-69
2021/06/06 06:35:15;;;;;;;13.43;12.33;;;;;;;17.46;100.00;98313.47;5097999;28;20221;-67
2021/06/06 06:37:42;;;;;;;13.53;12.33;;;;;;;17.57;100.00;98320.09;5093792;28;20701;-68
2021/06/06 06:40:12;;;;;;;13.80;12.60;;;;;;;17.51;100.00;98320.91;5094486;28;20198;-68
2021/06/06 06:42:42;;;;;;;13.57;12.30;;;;;;;17.69;100.00;98319.53;5098357;28;20312;-67
2021/06/06 06:45:14;;;;;;;12.70;11.63;;;;;;;17.85;100.00;98321.00;5098244;28;20284;-68
2021/06/06 06:47:41;;;;;;;12.30;11.30;;;;;;;18.01;100.00;98333.25;5096513;28;20209;-67
2021/06/06 06:50:11;;;;;;;12.83;11.83;;;;;;;18.13;100.00;98318.19;5091504;28;20209;-68
2021/06/06 06:52:38;;;;;;;12.43;11.33;;;;;;;18.13;100.00;98318.19;5094882;28;20662;-67
2021/06/06 06:55:07;;;;;;;12.40;11.40;;;;;;;18.36;100.00;98325.81;5096710;28;20419;-70
2021/06/06 06:57:35;;;;;;;11.33;10.43;;;;;;;18.05;100.00;98321.88;5095731;28;20221;-69
2021/06/06 07:00:10;;;;;;;10.97;10.10;;;;;;;18.16;100.00;98324.97;5100317;28;20202;-69
2021/06/06 07:02:57;;;;;;;11.80;10.70;;;;;;;18.15;100.00;98323.31;5099086;27;20560;-69
2021/06/06 07:05:25;;;;;;;12.47;11.47;;;;;;;17.98;100.00;98328.22;5099444;27;20656;-69
2021/06/06 07:07:53;;;;;;;11.90;11.00;;;;;;;17.89;100.00;98325.75;5100223;28;20275;-69
2021/06/06 07:10:23;;;;;;;11.20;10.30;;;;;;;17.82;100.00;98326.78;5097190;28;20213;-67
2021/06/06 07:12:50;;;;;;;12.53;11.53;;;;;;;17.75;100.00;98319.53;5102132;28;20201;-69
2021/06/06 07:15:20;;;;;;;12.53;11.60;;;;;;;18.13;100.00;98320.03;5102629;27;20233;-67
2021/06/06 07:17:48;;;;;;;12.00;11.10;;;;;;;17.88;100.00;98326.78;5103733;27;20205;-69
2021/06/06 07:20:18;;;;;;;13.00;12.00;;;;;;;17.69;100.00;98336.41;5097860;28;20932;-68
2021/06/06 07:22:45;;;;;;;13.70;12.70;;;;;;;17.63;100.00;98327.34;5100284;28;20234;-68
2021/06/06 07:25:17;;;;;;;12.57;11.67;;;;;;;17.65;100.00;98329.81;5098259;28;20713;-66
2021/06/06 07:27:47;;;;;;;12.70;11.80;;;;;;;17.91;100.00;98329.03;5098556;28;20210;-67
2021/06/06 07:30:17;;;;;;;13.10;12.10;;;;;;;18.05;100.00;98335.28;5100116;28;20234;-68
2021/06/06 07:32:46;;;;;;;12.33;11.33;;;;;;;18.09;100.00;98330.34;5095151;28;20194;-69
2021/06/06 07:35:14;;;;;;;12.07;11.17;;;;;;;18.31;100.00;98332.81;5098771;28;20578;-68
2021/06/06 07:37:42;;;;;;;11.27;10.47;;;;;;;18.62;100.00;98334.06;5100871;28;20204;-69
2021/06/06 07:40:11;;;;;;;11.37;10.60;;;;;;;18.88;100.00;98329.69;5099131;28;20194;-69
2021/06/06 07:42:39;;;;;;;11.43;10.37;;;;;;;19.36;96.67;98328.56;5100772;28;20656;-68
2021/06/06 07:45:08;;;;;;;10.10;9.40;;;;;;;19.64;93.68;98325.53;5096348;28;20590;-68
2021/06/06 07:47:36;;;;;;;10.50;9.70;;;;;;;19.41;96.44;98327.91;5101945;28;20246;-69
2021/06/06 07:50:05;;;;;;;10.50;9.77;;;;;;;19.33;94.42;98331.69;5097796;28;20229;-67
2021/06/06 07:52:35;;;;;;;9.60;9.00;;;;;;;18.94;95.21;98329.69;5098979;28;20205;-69
2021/06/06 07:55:04;;;;;;;9.40;8.73;;;;;;;19.01;94.94;98326.19;5101632;28;20608;-68
2021/06/06 07:57:32;;;;;;;9.40;8.80;;;;;;;19.00;93.80;98325.34;5095902;28;20202;-69
2021/06/06 07:59:59;;;;;;;9.47;8.77;;;;;;;18.82;98.01;98326.00;5092149;28;20206;-68
2021/06/06 08:02:27;;;;;;;9.27;8.57;;;;;;;18.73;96.05;98333.44;5093800;28;20260;-69
2021/06/06 08:04:54;;;;;;;10.37;9.67;;;;;;;18.70;96.79;98333.84;5097356;28;20221;-69
2021/06/06 08:07:28;;;;;;;9.77;8.93;;;;;;;18.44;100.00;98326.66;5093557;28;20208;-72
2021/06/06 08:09:56;;;;;;;10.37;9.57;;;;;;;18.66;99.41;98324.56;5099451;27;20216;-70
2021/06/06 08:12:25;;;;;;;9.67;8.97;;;;;;;18.79;97.35;98324.56;5096382;28;20220;-71
2021/06/06 08:14:53;;;;;;;9.80;9.10;;;;;;;18.76;97.96;98321.47;5092109;27;20226;-73
2021/06/06 08:17:21;;;;;;;9.07;8.53;;;;;;;18.99;96.70;98317.53;5098050;28;20202;-73
2021/06/06 08:19:48;;;;;;;9.43;8.83;;;;;;;19.11;95.17;98320.38;5098251;28;20205;-71
2021/06/06 08:22:16;;;;;;;8.93;8.23;;;;;;;19.27;93.75;98319.91;5092300;28;20534;-71
2021/06/06 08:24:45;;;;;;;9.77;8.77;;;;;;;19.34;91.88;98320.69;5092432;28;20241;-76
2021/06/06 08:27:13;;;;;;;8.20;7.70;;;;;;;19.31;92.45;98315.75;5092742;28;20229;-76
2021/06/06 08:29:42;;;;;;;8.37;7.63;;;;;;;19.08;95.10;98313.56;5095239;28;20237;-76
2021/06/06 08:32:10;;;;;;;7.93;7.43;;;;;;;19.01;96.26;98321.63;5094797;28;20198;-75
2021/06/06 08:34:37;;;;;;;8.43;7.67;;;;;;;18.57;96.17;98315.09;5096466;28;20225;-73
2021/06/06 08:37:06;;;;;;;8.03;7.53;;;;;;;18.54;98.53;98308.25;5096593;27;20217;-76
2021/06/06 08:39:35;;;;;;;8.00;7.50;;;;;;;18.58;96.59;98308.69;5099753;28;20682;-75
2021/06/06 08:42:08;;;;;;;7.90;7.20;;;;;;;18.86;94.38;98312.97;5096716;28;20535;-76
2021/06/06 08:44:39;;;;;;;7.90;7.40;;;;;;;18.82;93.92;98311.75;5099408;28;20224;-72
2021/06/06 08:47:11;;;;;;;8.37;7.60;;;;;;;19.00;93.70;98308.44;5098986;28;20213;-73
2021/06/06 08:49:40;;;;;;;8.93;7.23;;;;;;;19.31;91.84;98313.06;5097810;28;20684;-74
2021/06/06 08:52:21;;;;;;;7.97;7.47;;;;;;;19.20;91.53;98311.88;5098134;28;20690;-76
2021/06/06 08:54:54;;;;;;;7.70;7.10;;;;;;;19.40;90.30;98308.28;5096983;28;20252;-74
2021/06/06 08:57:28;;;;;;;7.63;7.10;;;;;;;19.70;89.96;98312.25;5095971;28;20201;-72
2021/06/06 08:59:57;;;;;;;7.50;7.00;;;;;;;19.64;88.88;98308.56;5097140;28;20599;-75
2021/06/06 09:02:28;;;;;;;7.90;7.40;;;;;;;19.73;88.11;98311.84;5091383;28;20217;-74
2021/06/06 09:04:56;;;;;;;8.70;7.97;;;;;;;19.68;86.63;98309.78;5095662;28;20236;-75
2021/06/06 09:07:31;;;;;;;8.07;7.47;;;;;;;20.02;85.50;98309.63;5093047;27;20209;-76
2021/06/06 09:10:00;;;;;;;7.27;6.77;;;;;;;20.50;84.91;98314.41;5098104;28;20217;-74
2021/06/06 09:12:29;;;;;;;7.00;6.40;;;;;;;20.99;80.64;98312.94;5097991;28;20590;-75
2021/06/06 09:14:57;;;;;;;7.20;6.53;;;;;;;21.32;77.42;98307.16;5098045;28;20244;-74
2021/06/06 09:17:38;;;;;;;6.57;6.17;;;;;;;21.63;75.85;98308.00;5097398;28;20263;-76
2021/06/06 09:20:08;;;;;;;6.30;5.90;;;;;;;21.07;77.61;98307.25;5096312;28;20206;-76
2021/06/06 09:22:38;;;;;;;7.20;6.70;;;;;;;20.40;81.40;98308.72;5097063;28;20206;-73
2021/06/06 09:25:10;;;;;;;7.07;6.67;;;;;;;19.95;84.93;98305.13;5096960;28;20228;-74
2021/06/06 09:27:40;;;;;;;7.40;6.80;;;;;;;19.51;87.46;98307.59;5095509;28;20202;-75
2021/06/06 09:30:13;;;;;;;7.60;7.10;;;;;;;19.29;88.84;98312.47;5097551;27;20197;-75
2021/06/06 09:32:40;;;;;;;7.13;6.60;;;;;;;19.25;89.40;98303.19;5097386;28;20213;-75
2021/06/06 09:35:20;;;;;;;7.83;7.33;;;;;;;19.27;89.63;98311.84;5098316;28;20221;-77
2021/06/06 09:37:50;;;;;;;7.53;6.93;;;;;;;19.26;90.17;98312.06;5096766;28;20577;-74
2021/06/06 09:40:29;;;;;;;8.03;7.43;;;;;;;18.97;97.52;98311.50;5098511;28;20353;-76
2021/06/06 09:42:58;;;;;;;8.53;7.83;;;;;;;18.52;100.00;98307.66;5091906;28;20441;-72
2021/06/06 09:45:29;;;;;;;8.60;8.00;;;;;;;18.58;100.00;98304.16;5097456;28;20217;-76
2021/06/06 09:48:03;;;;;;;8.87;8.17;;;;;;;18.57;100.00;98307.03;5099081;28;20202;-76
2021/06/06 09:50:38;;;;;;;9.43;8.70;;;;;;;18.27;100.00;98310.13;5097214;28;20205;-74
2021/06/06 09:53:16;;;;;;;9.33;8.57;;;;;;;18.16;100.00;98311.56;5096946;28;20212;-75
2021/06/06 09:55:44;;;;;;;7.97;7.33;;;;;;;17.88;100.00;98299.97;5097140;28;20700;-76
2021/06/06 09:58:16;;;;;;;9.63;8.93;;;;;;;17.64;100.00;98304.03;5095036;28;20629;-76
2021/06/06 10:00:44;;;;;;;9.00;8.40;;;;;;;17.44;100.00;98306.66;5099270;28;20205;-75
2021/06/06 10:03:22;;;;;;;9.47;8.87;;;;;;;17.73;100.00;98304.69;5094861;28;21042;-75
2021/06/06 10:05:54;;;;;;;10.57;9.83;;;;;;;17.77;100.00;98300.56;5096172;28;20217;-77
2021/06/06 10:08:23;;;;;;;10.50;9.80;;;;;;;18.05;100.00;98296.94;5094129;28;20725;-76
2021/06/06 10:10:52;;;;;;;10.10;9.40;;;;;;;18.18;100.00;98304.13;5089415;28;20206;-76
2021/06/06 10:13:25;;;;;;;9.50;8.80;;;;;;;18.42;100.00;98299.19;5095023;28;20200;-76
2021/06/06 10:15:56;;;;;;;10.10;9.23;;;;;;;18.77;100.00;98296.25;5089537;28;20602;-77
2021/06/06 10:18:27;;;;;;;9.33;8.70;;;;;;;18.98;100.00;98297.88;5096889;28;20685;-76
2021/06/06 10:20:59;;;;;;;8.87;8.27;;;;;;;19.31;100.00;98294.25;5096148;28;20686;-78
2021/06/06 10:23:31;;;;;;;9.30;8.60;;;;;;;19.57;100.00;98297.03;5098869;28;20225;-74
2021/06/06 10:26:03;;;;;;;9.37;8.57;;;;;;;19.51;100.00;98304.09;5098561;28;20221;-76
2021/06/06 10:28:35;;;;;;;8.17;7.67;;;;;;;19.79;100.00;98295.66;5098253;28;20617;-76
2021/06/06 10:31:06;;;;;;;9.50;8.80;;;;;;;19.91;100.00;98298.53;5094868;28;20199;-76
2021/06/06 10:33:36;;;;;;;9.33;8.63;;;;;;;19.94;98.07;98298.09;5099365;28;20578;-76
2021/06/06 10:36:05;;;;;;;9.00;8.40;;;;;;;19.66;100.00;98293.03;5103917;28;20217;-76
2021/06/06 10:38:33;;;;;;;9.50;8.90;;;;;;;20.16;98.94;98299.59;5103763;28;20210;-76
2021/06/06 10:41:10;;;;;;;8.80;8.20;;;;;;;20.23;97.28;98303.84;5102303;28;20255;-75
2021/06/06 10:43:45;;;;;;;8.40;7.80;;;;;;;20.32;94.45;98303.59;5099730;28;20955;-77
2021/06/06 10:46:16;;;;;;;9.90;9.10;;;;;;;20.12;95.58;98293.81;5104123;28;20225;-73
2021/06/06 10:48:46;;;;;;;9.67;8.97;;;;;;;20.36;92.33;98305.63;5104091;28;20857;-75
2021/06/06 10:51:18;;;;;;;8.83;8.23;;;;;;;20.88;86.35;98298.34;5101379;28;20205;-72
2021/06/06 10:53:53;;;;;;;8.33;7.83;;;;;;;21.02;85.71;98299.81;5098242;27;21189;-75
2021/06/06 10:56:33;;;;;;;8.67;8.07;;;;;;;21.00;86.14;98301.13;5096544;28;20221;-75
2021/06/06 10:59:05;;;;;;;8.60;8.00;;;;;;;20.80;90.65;98294.91;5103476;27;20201;-77
2021/06/06 11:01:52;;;;;;;8.90;8.30;;;;;;;20.69;91.38;98295.63;5099826;28;20534;-76
2021/06/06 11:04:23;;;;;;;8.63;8.10;;;;;;;21.27;85.85;98288.16;5097446;27;20240;-73
2021/06/06 11:07:08;;;;;;;8.70;8.10;;;;;;;21.89;82.25;98284.44;5100594;27;20824;-75
2021/06/06 11:09:37;;;;;;;8.67;8.00;;;;;;;21.47;84.88;98287.09;5102683;28;20619;-76
2021/06/06 11:12:09;;;;;;;8.47;7.97;;;;;;;21.87;81.51;98286.53;5102698;28;20202;-72
2021/06/06 11:14:44;;;;;;;8.87;8.17;;;;;;;21.91;82.04;98278.78;5096460;28;20213;-77
2021/06/06 11:17:28;;;;;;;8.53;8.03;;;;;;;21.67;83.57;98279.56;5101360;28;20218;-79
2021/06/06 11:20:07;;;;;;;7.57;7.07;;;;;;;21.55;82.79;98278.66;5099268;28;20232;-76
2021/06/06 11:22:36;;;;;;;6.80;6.30;;;;;;;21.50;77.81;98283.94;5099141;28;20474;-77
2021/06/06 11:25:05;;;;;;;5.13;4.83;;;;;;;21.32;78.51;98282.91;5102548;28;20675;-75
2021/06/06 11:27:36;;;;;;;6.27;5.93;;;;;;;21.04;81.96;98278.06;5101140;28;20204;-77
2021/06/06 11:30:09;;;;;;;6.00;5.70;;;;;;;20.67;82.83;98274.28;5100111;28;20618;-75
2021/06/06 11:32:55;;;;;;;6.37;5.83;;;;;;;20.19;88.74;98273.06;5101046;28;20206;-74
2021/06/06 11:35:29;;;;;;;6.63;6.03;;;;;;;19.76;92.89;98271.91;5099462;28;20637;-76
2021/06/06 11:37:58;;;;;;;6.27;5.87;;;;;;;19.29;100.00;98274.84;5098273;28;20569;-78